sensor_id;sensor_type;location;lat;lon;timestamp;P1;durP1;ratioP1;P2;durP2;ratioP2
3911;SDS011;1971;51.778;10.330;2023-09-30T00:35:35;6.67;;;4.27;;
3911;SDS011;1971;51.778;10.330;2023-09-30T00:38:05;7.13;;;4.30;;
3911;SDS011;1971;51.778;10.330;2023-09-30T00:40:37;7.60;;;4.50;;
3911;SDS011;1971;51.778;10.330;2023-09-30T00:43:07;9.93;;;4.30;;
3911;SDS011;1971;51.778;10.330;2023-09-30T00:45:48;7.03;;;4.30;;
3911;SDS011;1971;51.778;10.330;2023-09-30T00:48:21;8.33;;;4.60;;
3911;SDS011;1971;51.778;10.330;2023-09-30T00:50:54;6.07;;;3.70;;
3911;SDS011;1971;51.778;10.330;2023-09-30T00:53:24;6.63;;;4.13;;
3911;SDS011;1971;51.778;10.330;2023-09-30T00:55:55;6.50;;;4.40;;
3911;SDS011;1971;51.778;10.330;2023-09-30T00:58:26;6.60;;;4.07;;
3911;SDS011;1971;51.778;10.330;2023-09-30T01:00:57;7.30;;;4.37;;
3911;SDS011;1971;51.778;10.330;2023-09-30T01:03:29;7.13;;;5.07;;
3911;SDS011;1971;51.778;10.330;2023-09-30T01:06:03;10.67;;;5.70;;
3911;SDS011;1971;51.778;10.330;2023-09-30T01:08:34;7.73;;;4.93;;
3911;SDS011;1971;51.778;10.330;2023-09-30T01:11:05;7.57;;;5.33;;
3911;SDS011;1971;51.778;10.330;2023-09-30T01:13:36;7.40;;;4.93;;
3911;SDS011;1971;51.778;10.330;2023-09-30T01:16:07;7.37;;;5.40;;
3911;SDS011;1971;51.778;10.330;2023-09-30T01:18:39;5.67;;;4.83;;
3911;SDS011;1971;51.778;10.330;2023-09-30T01:21:13;8.30;;;6.00;;
3911;SDS011;1971;51.778;10.330;2023-09-30T01:23:47;7.30;;;5.40;;
3911;SDS011;1971;51.778;10.330;2023-09-30T01:26:17;8.73;;;5.30;;
3911;SDS011;1971;51.778;10.330;2023-09-30T01:28:47;10.30;;;6.60;;
3911;SDS011;1971;51.778;10.330;2023-09-30T01:31:17;6.50;;;4.93;;
3911;SDS011;1971;51.778;10.330;2023-09-30T01:33:48;9.13;;;6.40;;
3911;SDS011;1971;51.778;10.330;2023-09-30T01:36:23;8.80;;;5.90;;
3911;SDS011;1971;51.778;10.330;2023-09-30T01:38:57;7.80;;;6.83;;
3911;SDS011;1971;51.778;10.330;2023-09-30T01:41:28;7.87;;;6.40;;
3911;SDS011;1971;51.778;10.330;2023-09-30T01:43:58;7.27;;;6.03;;
3911;SDS011;1971;51.778;10.330;2023-09-30T01:46:29;7.30;;;5.53;;
3911;SDS011;1971;51.778;10.330;2023-09-30T01:48:59;7.17;;;6.40;;
3911;SDS011;1971;51.778;10.330;2023-09-30T01:51:30;11.70;;;6.20;;
3911;SDS011;1971;51.778;10.330;2023-09-30T01:54:03;10.20;;;6.57;;
3911;SDS011;1971;51.778;10.330;2023-09-30T01:56:34;7.20;;;6.50;;
3911;SDS011;1971;51.778;10.330;2023-09-30T01:59:04;8.33;;;5.57;;
3911;SDS011;1971;51.778;10.330;2023-09-30T02:01:35;9.90;;;6.40;;
3911;SDS011;1971;51.778;10.330;2023-09-30T02:04:05;8.07;;;5.80;;
3911;SDS011;1971;51.778;10.330;2023-09-30T02:06:36;7.30;;;6.27;;
3911;SDS011;1971;51.778;10.330;2023-09-30T02:09:09;7.43;;;6.47;;
3911;SDS011;1971;51.778;10.330;2023-09-30T02:11:39;8.70;;;6.63;;
3911;SDS011;1971;51.778;10.330;2023-09-30T02:14:10;12.87;;;7.30;;
3911;SDS011;1971;51.778;10.330;2023-09-30T02:16:41;10.50;;;7.37;;
3911;SDS011;1971;51.778;10.330;2023-09-30T02:19:11;8.97;;;6.77;;
3911;SDS011;1971;51.778;10.330;2023-09-30T02:21:41;7.47;;;6.00;;
3911;SDS011;1971;51.778;10.330;2023-09-30T02:24:14;6.67;;;5.10;;
3911;SDS011;1971;51.778;10.330;2023-09-30T02:26:45;9.60;;;6.30;;
3911;SDS011;1971;51.778;10.330;2023-09-30T02:29:15;7.33;;;5.30;;
3911;SDS011;1971;51.778;10.330;2023-09-30T02:31:49;9.07;;;5.67;;
3911;SDS011;1971;51.778;10.330;2023-09-30T02:34:21;11.43;;;6.53;;
3911;SDS011;1971;51.778;10.330;2023-09-30T02:36:52;7.37;;;5.17;;
3911;SDS011;1971;51.778;10.330;2023-09-30T02:39:26;9.97;;;6.13;;
3911;SDS011;1971;51.778;10.330;2023-09-30T02:41:56;8.13;;;5.33;;
3911;SDS011;1971;51.778;10.330;2023-09-30T02:44:26;6.13;;;4.57;;
3911;SDS011;1971;51.778;10.330;2023-09-30T02:46:57;6.70;;;4.83;;
3911;SDS011;1971;51.778;10.330;2023-09-30T02:49:27;7.90;;;5.30;;
3911;SDS011;1971;51.778;10.330;2023-09-30T02:51:57;7.83;;;4.90;;
3911;SDS011;1971;51.778;10.330;2023-09-30T02:54:30;7.93;;;4.63;;
3911;SDS011;1971;51.778;10.330;2023-09-30T02:57:01;6.90;;;4.20;;
3911;SDS011;1971;51.778;10.330;2023-09-30T02:59:31;11.40;;;5.30;;
3911;SDS011;1971;51.778;10.330;2023-09-30T03:02:03;12.80;;;5.60;;
3911;SDS011;1971;51.778;10.330;2023-09-30T03:04:33;7.10;;;5.20;;
3911;SDS011;1971;51.778;10.330;2023-09-30T03:07:04;6.47;;;4.80;;
3911;SDS011;1971;51.778;10.330;2023-09-30T03:09:38;8.00;;;4.60;;
3911;SDS011;1971;51.778;10.330;2023-09-30T03:12:09;8.33;;;4.70;;
3911;SDS011;1971;51.778;10.330;2023-09-30T03:14:40;7.63;;;5.10;;
3911;SDS011;1971;51.778;10.330;2023-09-30T03:17:11;6.33;;;4.47;;
3911;SDS011;1971;51.778;10.330;2023-09-30T03:19:41;8.37;;;4.43;;
3911;SDS011;1971;51.778;10.330;2023-09-30T03:22:11;10.83;;;5.30;;
3911;SDS011;1971;51.778;10.330;2023-09-30T03:24:46;8.27;;;5.13;;
3911;SDS011;1971;51.778;10.330;2023-09-30T03:27:17;9.20;;;4.97;;
3911;SDS011;1971;51.778;10.330;2023-09-30T03:29:47;6.10;;;4.63;;
3911;SDS011;1971;51.778;10.330;2023-09-30T03:32:21;11.63;;;4.77;;
3911;SDS011;1971;51.778;10.330;2023-09-30T03:34:52;8.27;;;5.17;;
3911;SDS011;1971;51.778;10.330;2023-09-30T03:37:26;13.87;;;5.27;;
3911;SDS011;1971;51.778;10.330;2023-09-30T03:40:00;12.47;;;5.03;;
3911;SDS011;1971;51.778;10.330;2023-09-30T03:42:40;12.30;;;6.27;;
3911;SDS011;1971;51.778;10.330;2023-09-30T03:45:12;7.50;;;5.80;;
3911;SDS011;1971;51.778;10.330;2023-09-30T03:47:42;14.40;;;6.27;;
3911;SDS011;1971;51.778;10.330;2023-09-30T03:50:15;12.40;;;6.60;;
3911;SDS011;1971;51.778;10.330;2023-09-30T03:52:46;9.97;;;6.50;;
3911;SDS011;1971;51.778;10.330;2023-09-30T03:55:19;9.97;;;5.80;;
3911;SDS011;1971;51.778;10.330;2023-09-30T03:57:50;8.37;;;5.50;;
3911;SDS011;1971;51.778;10.330;2023-09-30T04:00:20;10.00;;;5.60;;
3911;SDS011;1971;51.778;10.330;2023-09-30T04:02:52;11.23;;;6.17;;
3911;SDS011;1971;51.778;10.330;2023-09-30T04:05:25;14.20;;;5.80;;
3911;SDS011;1971;51.778;10.330;2023-09-30T04:07:56;11.73;;;5.13;;
3911;SDS011;1971;51.778;10.330;2023-09-30T04:10:29;7.67;;;5.43;;
3911;SDS011;1971;51.778;10.330;2023-09-30T04:12:59;10.73;;;5.90;;
3911;SDS011;1971;51.778;10.330;2023-09-30T04:15:30;8.40;;;5.60;;
3911;SDS011;1971;51.778;10.330;2023-09-30T04:18:04;8.90;;;5.33;;
3911;SDS011;1971;51.778;10.330;2023-09-30T04:20:35;7.30;;;5.10;;
3911;SDS011;1971;51.778;10.330;2023-09-30T04:23:06;7.60;;;5.60;;
3911;SDS011;1971;51.778;10.330;2023-09-30T04:25:40;6.77;;;5.07;;
3911;SDS011;1971;51.778;10.330;2023-09-30T04:28:10;9.00;;;5.03;;
3911;SDS011;1971;51.778;10.330;2023-09-30T04:30:43;7.27;;;5.00;;
3911;SDS011;1971;51.778;10.330;2023-09-30T04:33:15;9.97;;;5.23;;
3911;SDS011;1971;51.778;10.330;2023-09-30T04:35:47;10.33;;;5.50;;
3911;SDS011;1971;51.778;10.330;2023-09-30T04:38:17;12.40;;;4.73;;
3911;SDS011;1971;51.778;10.330;2023-09-30T04:40:50;14.90;;;5.57;;
3911;SDS011;1971;51.778;10.330;2023-09-30T04:43:20;15.20;;;5.10;;
3911;SDS011;1971;51.778;10.330;2023-09-30T04:45:51;7.70;;;5.87;;
3911;SDS011;1971;51.778;10.330;2023-09-30T04:48:23;12.27;;;6.37;;
3911;SDS011;1971;51.778;10.330;2023-09-30T04:50:53;12.03;;;6.07;;
3911;SDS011;1971;51.778;10.330;2023-09-30T04:53:24;12.53;;;6.00;;
3911;SDS011;1971;51.778;10.330;2023-09-30T04:55:57;9.27;;;5.93;;
3911;SDS011;1971;51.778;10.330;2023-09-30T04:58:28;7.93;;;5.37;;
3911;SDS011;1971;51.778;10.330;2023-09-30T05:00:59;13.47;;;5.90;;
3911;SDS011;1971;51.778;10.330;2023-09-30T05:03:29;8.33;;;6.00;;
3911;SDS011;1971;51.778;10.330;2023-09-30T05:06:00;9.20;;;5.33;;
3911;SDS011;1971;51.778;10.330;2023-09-30T05:08:30;7.63;;;5.77;;
3911;SDS011;1971;51.778;10.330;2023-09-30T05:11:07;13.80;;;6.37;;
3911;SDS011;1971;51.778;10.330;2023-09-30T05:13:37;10.27;;;6.03;;
3911;SDS011;1971;51.778;10.330;2023-09-30T05:16:07;11.20;;;6.57;;
3911;SDS011;1971;51.778;10.330;2023-09-30T05:18:41;8.90;;;5.40;;
3911;SDS011;1971;51.778;10.330;2023-09-30T05:21:11;10.07;;;6.00;;
3911;SDS011;1971;51.778;10.330;2023-09-30T05:23:42;12.10;;;6.13;;
3911;SDS011;1971;51.778;10.330;2023-09-30T05:26:15;10.30;;;7.30;;
3911;SDS011;1971;51.778;10.330;2023-09-30T05:28:49;13.67;;;7.50;;
3911;SDS011;1971;51.778;10.330;2023-09-30T05:31:19;16.10;;;7.97;;
3911;SDS011;1971;51.778;10.330;2023-09-30T05:33:49;14.20;;;7.67;;
3911;SDS011;1971;51.778;10.330;2023-09-30T05:36:20;11.40;;;7.47;;
3911;SDS011;1971;51.778;10.330;2023-09-30T05:38:51;12.20;;;7.60;;
3911;SDS011;1971;51.778;10.330;2023-09-30T05:41:24;13.03;;;7.07;;
3911;SDS011;1971;51.778;10.330;2023-09-30T05:43:57;10.53;;;7.90;;
3911;SDS011;1971;51.778;10.330;2023-09-30T05:46:28;11.00;;;7.27;;
3911;SDS011;1971;51.778;10.330;2023-09-30T05:48:59;13.20;;;7.57;;
3911;SDS011;1971;51.778;10.330;2023-09-30T05:51:39;12.53;;;7.10;;
3911;SDS011;1971;51.778;10.330;2023-09-30T05:54:10;10.90;;;7.97;;
3911;SDS011;1971;51.778;10.330;2023-09-30T05:56:43;8.53;;;6.43;;
3911;SDS011;1971;51.778;10.330;2023-09-30T05:59:13;10.93;;;7.73;;
3911;SDS011;1971;51.778;10.330;2023-09-30T06:01:44;12.03;;;7.30;;
3911;SDS011;1971;51.778;10.330;2023-09-30T06:04:14;9.90;;;6.97;;
3911;SDS011;1971;51.778;10.330;2023-09-30T06:06:45;13.03;;;8.53;;
3911;SDS011;1971;51.778;10.330;2023-09-30T06:09:15;10.60;;;8.30;;
3911;SDS011;1971;51.778;10.330;2023-09-30T06:11:48;9.83;;;6.60;;
3911;SDS011;1971;51.778;10.330;2023-09-30T06:14:18;16.53;;;7.97;;
3911;SDS011;1971;51.778;10.330;2023-09-30T06:16:49;7.30;;;5.90;;
3911;SDS011;1971;51.778;10.330;2023-09-30T06:19:19;6.90;;;6.13;;
3911;SDS011;1971;51.778;10.330;2023-09-30T06:21:50;11.00;;;6.33;;
3911;SDS011;1971;51.778;10.330;2023-09-30T06:24:20;10.30;;;7.50;;
3911;SDS011;1971;51.778;10.330;2023-09-30T06:26:53;7.90;;;5.70;;
3911;SDS011;1971;51.778;10.330;2023-09-30T06:29:23;11.67;;;6.60;;
3911;SDS011;1971;51.778;10.330;2023-09-30T06:31:54;8.17;;;6.30;;
3911;SDS011;1971;51.778;10.330;2023-09-30T06:34:24;10.90;;;6.10;;
3911;SDS011;1971;51.778;10.330;2023-09-30T06:36:55;9.60;;;6.57;;
3911;SDS011;1971;51.778;10.330;2023-09-30T06:39:25;12.17;;;6.57;;
3911;SDS011;1971;51.778;10.330;2023-09-30T06:41:59;10.27;;;6.10;;
3911;SDS011;1971;51.778;10.330;2023-09-30T06:44:30;10.80;;;7.40;;
3911;SDS011;1971;51.778;10.330;2023-09-30T06:47:00;10.63;;;6.63;;
3911;SDS011;1971;51.778;10.330;2023-09-30T06:49:33;13.47;;;6.40;;
3911;SDS011;1971;51.778;10.330;2023-09-30T06:52:03;12.00;;;6.73;;
3911;SDS011;1971;51.778;10.330;2023-09-30T06:54:34;11.70;;;6.53;;
3911;SDS011;1971;51.778;10.330;2023-09-30T06:57:07;11.97;;;6.70;;
3911;SDS011;1971;51.778;10.330;2023-09-30T06:59:38;10.67;;;6.43;;
3911;SDS011;1971;51.778;10.330;2023-09-30T07:02:09;12.17;;;7.17;;
3911;SDS011;1971;51.778;10.330;2023-09-30T07:04:39;8.47;;;5.87;;
3911;SDS011;1971;51.778;10.330;2023-09-30T07:07:10;12.80;;;7.27;;
3911;SDS011;1971;51.778;10.330;2023-09-30T07:09:43;15.00;;;7.10;;
3911;SDS011;1971;51.778;10.330;2023-09-30T07:12:16;11.57;;;6.60;;
3911;SDS011;1971;51.778;10.330;2023-09-30T07:14:47;8.70;;;5.83;;
3911;SDS011;1971;51.778;10.330;2023-09-30T07:17:21;12.50;;;6.83;;
3911;SDS011;1971;51.778;10.330;2023-09-30T07:19:51;11.27;;;6.17;;
3911;SDS011;1971;51.778;10.330;2023-09-30T07:22:21;11.43;;;6.53;;
3911;SDS011;1971;51.778;10.330;2023-09-30T07:25:05;12.00;;;5.87;;
3911;SDS011;1971;51.778;10.330;2023-09-30T07:27:38;11.00;;;6.43;;
3911;SDS011;1971;51.778;10.330;2023-09-30T07:30:09;9.57;;;5.60;;
3911;SDS011;1971;51.778;10.330;2023-09-30T07:32:43;7.90;;;5.67;;
3911;SDS011;1971;51.778;10.330;2023-09-30T07:35:19;12.40;;;7.67;;
3911;SDS011;1971;51.778;10.330;2023-09-30T07:37:50;11.57;;;5.90;;
3911;SDS011;1971;51.778;10.330;2023-09-30T07:40:24;8.73;;;5.80;;
3911;SDS011;1971;51.778;10.330;2023-09-30T07:42:57;9.30;;;5.30;;
3911;SDS011;1971;51.778;10.330;2023-09-30T07:45:27;11.40;;;5.93;;
3911;SDS011;1971;51.778;10.330;2023-09-30T07:48:01;13.90;;;6.20;;
3911;SDS011;1971;51.778;10.330;2023-09-30T07:50:32;13.60;;;5.70;;
3911;SDS011;1971;51.778;10.330;2023-09-30T07:53:03;8.63;;;5.13;;
3911;SDS011;1971;51.778;10.330;2023-09-30T07:55:33;10.73;;;4.87;;
3911;SDS011;1971;51.778;10.330;2023-09-30T07:58:09;13.40;;;5.83;;
3911;SDS011;1971;51.778;10.330;2023-09-30T08:00:39;8.37;;;4.97;;
3911;SDS011;1971;51.778;10.330;2023-09-30T08:03:11;9.60;;;5.17;;
3911;SDS011;1971;51.778;10.330;2023-09-30T08:05:42;7.77;;;4.50;;
3911;SDS011;1971;51.778;10.330;2023-09-30T08:08:13;9.60;;;5.33;;
3911;SDS011;1971;51.778;10.330;2023-09-30T08:10:43;5.80;;;3.80;;
3911;SDS011;1971;51.778;10.330;2023-09-30T08:13:16;7.20;;;4.40;;
3911;SDS011;1971;51.778;10.330;2023-09-30T08:15:46;10.23;;;4.70;;
3911;SDS011;1971;51.778;10.330;2023-09-30T08:18:17;10.10;;;4.27;;
3911;SDS011;1971;51.778;10.330;2023-09-30T08:20:52;10.23;;;3.70;;
3911;SDS011;1971;51.778;10.330;2023-09-30T08:23:22;7.63;;;4.70;;
3911;SDS011;1971;51.778;10.330;2023-09-30T08:25:52;6.90;;;3.60;;
3911;SDS011;1971;51.778;10.330;2023-09-30T08:28:26;7.40;;;3.40;;
3911;SDS011;1971;51.778;10.330;2023-09-30T08:30:56;7.20;;;4.10;;
3911;SDS011;1971;51.778;10.330;2023-09-30T08:33:32;5.57;;;3.63;;
3911;SDS011;1971;51.778;10.330;2023-09-30T08:36:03;6.43;;;3.53;;
3911;SDS011;1971;51.778;10.330;2023-09-30T08:38:35;8.77;;;3.93;;
3911;SDS011;1971;51.778;10.330;2023-09-30T08:41:05;6.00;;;4.40;;
3911;SDS011;1971;51.778;10.330;2023-09-30T08:43:40;12.13;;;4.00;;
3911;SDS011;1971;51.778;10.330;2023-09-30T08:46:10;9.37;;;3.90;;
3911;SDS011;1971;51.778;10.330;2023-09-30T08:48:42;9.03;;;4.03;;
3911;SDS011;1971;51.778;10.330;2023-09-30T08:51:15;11.27;;;3.90;;
3911;SDS011;1971;51.778;10.330;2023-09-30T08:53:46;11.43;;;6.80;;
3911;SDS011;1971;51.778;10.330;2023-09-30T08:56:17;5.23;;;3.40;;
3911;SDS011;1971;51.778;10.330;2023-09-30T08:58:57;6.53;;;3.57;;
3911;SDS011;1971;51.778;10.330;2023-09-30T09:01:29;5.23;;;3.00;;
3911;SDS011;1971;51.778;10.330;2023-09-30T09:04:00;6.37;;;3.20;;
3911;SDS011;1971;51.778;10.330;2023-09-30T09:06:33;8.20;;;3.67;;
3911;SDS011;1971;51.778;10.330;2023-09-30T09:09:13;8.20;;;3.87;;
3911;SDS011;1971;51.778;10.330;2023-09-30T09:11:44;4.57;;;3.20;;
3911;SDS011;1971;51.778;10.330;2023-09-30T09:14:17;5.90;;;3.63;;
3911;SDS011;1971;51.778;10.330;2023-09-30T09:16:51;9.67;;;4.00;;
3911;SDS011;1971;51.778;10.330;2023-09-30T09:19:22;8.80;;;4.27;;
3911;SDS011;1971;51.778;10.330;2023-09-30T09:21:53;5.80;;;3.90;;
3911;SDS011;1971;51.778;10.330;2023-09-30T09:24:28;7.43;;;3.37;;
3911;SDS011;1971;51.778;10.330;2023-09-30T09:27:09;5.73;;;3.17;;
3911;SDS011;1971;51.778;10.330;2023-09-30T09:29:46;5.70;;;3.27;;
3911;SDS011;1971;51.778;10.330;2023-09-30T09:32:17;8.43;;;3.20;;
3911;SDS011;1971;51.778;10.330;2023-09-30T09:34:59;8.80;;;3.60;;
3911;SDS011;1971;51.778;10.330;2023-09-30T09:37:30;6.13;;;3.57;;
3911;SDS011;1971;51.778;10.330;2023-09-30T09:40:02;8.83;;;3.67;;
3911;SDS011;1971;51.778;10.330;2023-09-30T09:42:34;4.80;;;3.33;;
3911;SDS011;1971;51.778;10.330;2023-09-30T09:45:08;5.27;;;3.50;;
3911;SDS011;1971;51.778;10.330;2023-09-30T09:47:40;6.70;;;3.57;;
3911;SDS011;1971;51.778;10.330;2023-09-30T09:50:11;4.13;;;3.60;;
3911;SDS011;1971;51.778;10.330;2023-09-30T09:52:42;5.23;;;2.90;;
3911;SDS011;1971;51.778;10.330;2023-09-30T09:55:15;5.80;;;3.10;;
3911;SDS011;1971;51.778;10.330;2023-09-30T09:57:46;6.37;;;3.07;;
3911;SDS011;1971;51.778;10.330;2023-09-30T10:00:20;7.43;;;3.33;;
3911;SDS011;1971;51.778;10.330;2023-09-30T10:02:52;5.57;;;3.60;;
3911;SDS011;1971;51.778;10.330;2023-09-30T10:05:28;8.97;;;3.70;;
3911;SDS011;1971;51.778;10.330;2023-09-30T10:08:00;8.37;;;3.47;;
3911;SDS011;1971;51.778;10.330;2023-09-30T10:10:35;7.30;;;2.70;;
3911;SDS011;1971;51.778;10.330;2023-09-30T10:13:07;5.30;;;3.13;;
3911;SDS011;1971;51.778;10.330;2023-09-30T10:15:40;5.27;;;3.07;;
3911;SDS011;1971;51.778;10.330;2023-09-30T10:18:11;4.13;;;2.63;;
3911;SDS011;1971;51.778;10.330;2023-09-30T10:20:44;5.50;;;3.17;;
3911;SDS011;1971;51.778;10.330;2023-09-30T10:23:25;4.60;;;2.70;;
3911;SDS011;1971;51.778;10.330;2023-09-30T10:26:15;4.47;;;2.93;;
3911;SDS011;1971;51.778;10.330;2023-09-30T10:28:50;3.67;;;2.40;;
3911;SDS011;1971;51.778;10.330;2023-09-30T10:31:23;4.13;;;2.80;;
3911;SDS011;1971;51.778;10.330;2023-09-30T10:36:53;4.50;;;2.70;;
3911;SDS011;1971;51.778;10.330;2023-09-30T10:51:15;3.70;;;2.20;;
3911;SDS011;1971;51.778;10.330;2023-09-30T10:53:46;6.13;;;2.50;;
3911;SDS011;1971;51.778;10.330;2023-09-30T10:56:18;3.10;;;2.03;;
3911;SDS011;1971;51.778;10.330;2023-09-30T10:58:49;6.73;;;2.43;;
3911;SDS011;1971;51.778;10.330;2023-09-30T11:01:21;5.13;;;2.17;;
3911;SDS011;1971;51.778;10.330;2023-09-30T11:03:58;2.77;;;1.83;;
3911;SDS011;1971;51.778;10.330;2023-09-30T11:06:30;4.20;;;1.93;;
3911;SDS011;1971;51.778;10.330;2023-09-30T11:09:01;4.90;;;1.90;;
3911;SDS011;1971;51.778;10.330;2023-09-30T11:42:00;2.80;;;1.93;;
3911;SDS011;1971;51.778;10.330;2023-09-30T11:44:31;3.27;;;2.33;;
3911;SDS011;1971;51.778;10.330;2023-09-30T11:47:13;4.87;;;2.87;;
3911;SDS011;1971;51.778;10.330;2023-09-30T11:49:43;5.70;;;3.17;;
3911;SDS011;1971;51.778;10.330;2023-09-30T11:52:16;3.60;;;1.70;;
3911;SDS011;1971;51.778;10.330;2023-09-30T11:54:55;2.60;;;1.93;;
3911;SDS011;1971;51.778;10.330;2023-09-30T11:57:30;3.40;;;2.20;;
3911;SDS011;1971;51.778;10.330;2023-09-30T12:00:03;4.07;;;3.30;;
3911;SDS011;1971;51.778;10.330;2023-09-30T12:02:40;4.40;;;2.40;;
3911;SDS011;1971;51.778;10.330;2023-09-30T12:05:10;4.57;;;2.80;;
3911;SDS011;1971;51.778;10.330;2023-09-30T12:07:40;2.40;;;2.20;;
3911;SDS011;1971;51.778;10.330;2023-09-30T12:10:11;4.33;;;2.70;;
3911;SDS011;1971;51.778;10.330;2023-09-30T12:12:44;4.30;;;2.63;;
3911;SDS011;1971;51.778;10.330;2023-09-30T12:15:14;6.83;;;2.67;;
3911;SDS011;1971;51.778;10.330;2023-09-30T12:17:48;5.17;;;3.07;;
3911;SDS011;1971;51.778;10.330;2023-09-30T12:20:19;5.00;;;2.30;;
3911;SDS011;1971;51.778;10.330;2023-09-30T12:22:49;5.47;;;2.73;;
3911;SDS011;1971;51.778;10.330;2023-09-30T12:25:21;4.93;;;3.03;;
3911;SDS011;1971;51.778;10.330;2023-09-30T12:27:54;2.63;;;2.10;;
3911;SDS011;1971;51.778;10.330;2023-09-30T12:30:24;5.30;;;2.37;;
3911;SDS011;1971;51.778;10.330;2023-09-30T12:32:55;4.93;;;3.00;;
3911;SDS011;1971;51.778;10.330;2023-09-30T12:35:25;2.47;;;2.23;;
3911;SDS011;1971;51.778;10.330;2023-09-30T12:37:59;5.40;;;3.00;;
3911;SDS011;1971;51.778;10.330;2023-09-30T12:40:32;2.20;;;1.53;;
3911;SDS011;1971;51.778;10.330;2023-09-30T12:43:05;4.23;;;2.43;;
3911;SDS011;1971;51.778;10.330;2023-09-30T12:45:37;4.03;;;1.93;;
3911;SDS011;1971;51.778;10.330;2023-09-30T12:48:08;6.60;;;2.03;;
3911;SDS011;1971;51.778;10.330;2023-09-30T12:50:38;6.73;;;2.80;;
3911;SDS011;1971;51.778;10.330;2023-09-30T12:53:08;3.40;;;2.10;;
3911;SDS011;1971;51.778;10.330;2023-09-30T12:55:38;5.13;;;2.60;;
3911;SDS011;1971;51.778;10.330;2023-09-30T12:58:11;2.80;;;2.13;;
3911;SDS011;1971;51.778;10.330;2023-09-30T13:00:41;2.60;;;2.20;;
3911;SDS011;1971;51.778;10.330;2023-09-30T13:03:12;3.67;;;2.67;;
3911;SDS011;1971;51.778;10.330;2023-09-30T13:05:44;5.20;;;2.47;;
3911;SDS011;1971;51.778;10.330;2023-09-30T13:08:14;5.47;;;2.63;;
3911;SDS011;1971;51.778;10.330;2023-09-30T13:10:44;7.17;;;4.13;;
3911;SDS011;1971;51.778;10.330;2023-09-30T13:13:19;3.17;;;2.47;;
3911;SDS011;1971;51.778;10.330;2023-09-30T13:15:49;3.50;;;2.20;;
3911;SDS011;1971;51.778;10.330;2023-09-30T13:18:20;3.67;;;2.40;;
3911;SDS011;1971;51.778;10.330;2023-09-30T13:20:50;6.23;;;2.70;;
3911;SDS011;1971;51.778;10.330;2023-09-30T13:23:21;2.93;;;2.40;;
3911;SDS011;1971;51.778;10.330;2023-09-30T13:25:53;4.33;;;2.67;;
3911;SDS011;1971;51.778;10.330;2023-09-30T13:28:26;4.50;;;2.43;;
3911;SDS011;1971;51.778;10.330;2023-09-30T13:30:57;3.40;;;1.93;;
3911;SDS011;1971;51.778;10.330;2023-09-30T13:33:27;8.53;;;2.63;;
3911;SDS011;1971;51.778;10.330;2023-09-30T13:35:57;2.00;;;1.73;;
3911;SDS011;1971;51.778;10.330;2023-09-30T13:38:29;2.30;;;2.07;;
3911;SDS011;1971;51.778;10.330;2023-09-30T13:41:01;5.70;;;2.30;;
3911;SDS011;1971;51.778;10.330;2023-09-30T13:43:34;2.53;;;1.83;;
3911;SDS011;1971;51.778;10.330;2023-09-30T13:46:06;3.30;;;2.03;;
3911;SDS011;1971;51.778;10.330;2023-09-30T13:48:36;2.43;;;2.00;;
3911;SDS011;1971;51.778;10.330;2023-09-30T13:51:07;3.50;;;2.20;;
3911;SDS011;1971;51.778;10.330;2023-09-30T13:53:38;3.90;;;2.13;;
3911;SDS011;1971;51.778;10.330;2023-09-30T13:56:09;3.70;;;1.80;;
3911;SDS011;1971;51.778;10.330;2023-09-30T13:58:42;3.07;;;2.17;;
3911;SDS011;1971;51.778;10.330;2023-09-30T14:01:12;2.83;;;1.80;;
3911;SDS011;1971;51.778;10.330;2023-09-30T14:03:44;2.60;;;1.80;;
3911;SDS011;1971;51.778;10.330;2023-09-30T14:06:14;4.50;;;2.47;;
3911;SDS011;1971;51.778;10.330;2023-09-30T14:08:44;3.37;;;1.83;;
3911;SDS011;1971;51.778;10.330;2023-09-30T14:11:14;5.30;;;2.37;;
3911;SDS011;1971;51.778;10.330;2023-09-30T14:13:47;3.43;;;2.13;;
3911;SDS011;1971;51.778;10.330;2023-09-30T14:16:17;4.20;;;2.00;;
3911;SDS011;1971;51.778;10.330;2023-09-30T14:18:48;4.83;;;3.07;;
3911;SDS011;1971;51.778;10.330;2023-09-30T14:21:18;4.87;;;2.33;;
3911;SDS011;1971;51.778;10.330;2023-09-30T14:23:48;4.77;;;2.10;;
3911;SDS011;1971;51.778;10.330;2023-09-30T14:26:18;3.83;;;2.67;;
3911;SDS011;1971;51.778;10.330;2023-09-30T14:28:51;3.57;;;2.07;;
3911;SDS011;1971;51.778;10.330;2023-09-30T14:31:21;5.57;;;2.30;;
3911;SDS011;1971;51.778;10.330;2023-09-30T14:33:51;5.73;;;1.97;;
3911;SDS011;1971;51.778;10.330;2023-09-30T14:36:22;3.43;;;2.10;;
3911;SDS011;1971;51.778;10.330;2023-09-30T14:38:52;3.17;;;2.20;;
3911;SDS011;1971;51.778;10.330;2023-09-30T14:41:39;4.00;;;2.37;;
3911;SDS011;1971;51.778;10.330;2023-09-30T14:44:12;2.60;;;2.40;;
3911;SDS011;1971;51.778;10.330;2023-09-30T14:46:43;2.10;;;1.90;;
3911;SDS011;1971;51.778;10.330;2023-09-30T14:49:14;6.13;;;2.10;;
3911;SDS011;1971;51.778;10.330;2023-09-30T14:51:44;2.93;;;2.10;;
3911;SDS011;1971;51.778;10.330;2023-09-30T14:54:15;4.00;;;2.30;;
3911;SDS011;1971;51.778;10.330;2023-09-30T14:56:46;2.37;;;2.17;;
3911;SDS011;1971;51.778;10.330;2023-09-30T14:59:19;2.83;;;1.90;;
3911;SDS011;1971;51.778;10.330;2023-09-30T15:01:50;3.23;;;2.10;;
3911;SDS011;1971;51.778;10.330;2023-09-30T15:04:20;3.63;;;2.20;;
3911;SDS011;1971;51.778;10.330;2023-09-30T15:06:51;4.60;;;2.20;;
3911;SDS011;1971;51.778;10.330;2023-09-30T15:09:22;2.00;;;1.60;;
3911;SDS011;1971;51.778;10.330;2023-09-30T15:11:52;3.83;;;2.03;;
3911;SDS011;1971;51.778;10.330;2023-09-30T15:14:24;2.17;;;1.97;;
3911;SDS011;1971;51.778;10.330;2023-09-30T15:16:54;4.10;;;2.10;;
3911;SDS011;1971;51.778;10.330;2023-09-30T15:19:25;3.60;;;2.20;;
3911;SDS011;1971;51.778;10.330;2023-09-30T15:21:55;4.60;;;2.57;;
3911;SDS011;1971;51.778;10.330;2023-09-30T15:24:27;1.90;;;1.70;;
3911;SDS011;1971;51.778;10.330;2023-09-30T15:26:57;2.40;;;1.87;;
3911;SDS011;1971;51.778;10.330;2023-09-30T15:29:30;2.30;;;1.97;;
3911;SDS011;1971;51.778;10.330;2023-09-30T15:32:01;2.37;;;1.80;;
3911;SDS011;1971;51.778;10.330;2023-09-30T15:34:35;2.80;;;1.80;;
3911;SDS011;1971;51.778;10.330;2023-09-30T15:37:07;3.30;;;2.20;;
3911;SDS011;1971;51.778;10.330;2023-09-30T15:39:37;3.70;;;2.17;;
3911;SDS011;1971;51.778;10.330;2023-09-30T15:42:09;3.10;;;1.87;;
3911;SDS011;1971;51.778;10.330;2023-09-30T15:44:43;3.33;;;2.33;;
3911;SDS011;1971;51.778;10.330;2023-09-30T15:47:13;2.33;;;2.13;;
3911;SDS011;1971;51.778;10.330;2023-09-30T15:49:43;2.80;;;2.10;;
3911;SDS011;1971;51.778;10.330;2023-09-30T15:52:14;3.30;;;2.43;;
3911;SDS011;1971;51.778;10.330;2023-09-30T15:54:44;2.77;;;2.30;;
3911;SDS011;1971;51.778;10.330;2023-09-30T15:57:16;6.50;;;1.97;;
3911;SDS011;1971;51.778;10.330;2023-09-30T15:59:49;4.00;;;1.80;;
3911;SDS011;1971;51.778;10.330;2023-09-30T16:02:19;2.73;;;2.20;;
3911;SDS011;1971;51.778;10.330;2023-09-30T16:04:49;5.23;;;2.10;;
3911;SDS011;1971;51.778;10.330;2023-09-30T16:07:20;6.83;;;2.23;;
3911;SDS011;1971;51.778;10.330;2023-09-30T16:09:50;3.10;;;2.17;;
3911;SDS011;1971;51.778;10.330;2023-09-30T16:12:20;3.13;;;2.80;;
3911;SDS011;1971;51.778;10.330;2023-09-30T16:14:53;3.93;;;2.13;;
3911;SDS011;1971;51.778;10.330;2023-09-30T16:17:23;3.73;;;2.13;;
3911;SDS011;1971;51.778;10.330;2023-09-30T16:19:54;2.83;;;2.30;;
3911;SDS011;1971;51.778;10.330;2023-09-30T16:22:24;4.70;;;2.30;;
3911;SDS011;1971;51.778;10.330;2023-09-30T16:24:54;5.73;;;2.70;;
3911;SDS011;1971;51.778;10.330;2023-09-30T16:27:24;4.83;;;3.10;;
3911;SDS011;1971;51.778;10.330;2023-09-30T16:29:57;2.03;;;1.70;;
3911;SDS011;1971;51.778;10.330;2023-09-30T16:32:27;2.33;;;2.13;;
3911;SDS011;1971;51.778;10.330;2023-09-30T16:34:58;3.13;;;2.47;;
3911;SDS011;1971;51.778;10.330;2023-09-30T16:37:29;3.80;;;2.10;;
3911;SDS011;1971;51.778;10.330;2023-09-30T16:40:00;4.07;;;3.73;;
3911;SDS011;1971;51.778;10.330;2023-09-30T16:42:31;5.57;;;4.60;;
3911;SDS011;1971;51.778;10.330;2023-09-30T16:45:05;2.10;;;1.90;;